Terminal Aerodrome Forecast
Issued by NWS

Home | Current Version | Previous Version | Text Only | Print | Product List | Glossary On
Versions: 1 2 3 4 5 6 7 8 9 10 11 12 13 14 15 16 17 18 19 20 21 22
000
FTUS41 KILN 221136
TAFLCK
TAF
KLCK 221136Z 2212/2312 18005KT 4SM BR VCSH SCT015 OVC025
      TEMPO 2212/2214 2SM -SHRA BR OVC015
     FM221400 00000KT 3SM BR OVC009
     FM221800 20005KT P6SM BKN015
     FM230700 20004KT 5SM BR OVC012=

USA.gov is the U.S. government's official web portal to all federal, state and local government web resources and services.